createdAt,value
2023-04-23T00:01:09.469Z,4.20
2023-04-23T00:03:37.681Z,3.60
2023-04-23T00:06:07.989Z,4.60
2023-04-23T00:08:36.056Z,4.20
2023-04-23T00:11:05.379Z,4.50
2023-04-23T00:13:34.142Z,4.30
2023-04-23T00:16:02.402Z,4.20
2023-04-23T00:18:30.651Z,4.20
2023-04-23T00:20:59.197Z,4.30
2023-04-23T00:23:28.798Z,4.50
2023-04-23T00:25:56.723Z,4.30
2023-04-23T00:28:25.720Z,4.20
2023-04-23T00:30:53.701Z,4.20
2023-04-23T00:33:21.648Z,4.40
2023-04-23T00:35:49.570Z,4.50
2023-04-23T00:38:17.657Z,4.70
2023-04-23T00:40:45.623Z,4.90
2023-04-23T00:43:17.793Z,4.90
2023-04-23T00:45:45.657Z,4.80
2023-04-23T00:48:13.606Z,5.40
2023-04-23T00:50:42.124Z,5.70
2023-04-23T00:53:10.068Z,5.10
2023-04-23T00:55:37.977Z,4.70
2023-04-23T00:58:06.946Z,5.10
2023-04-23T01:00:36.448Z,5.10
2023-04-23T01:03:04.875Z,4.70
2023-04-23T01:05:32.909Z,4.80
2023-04-23T01:08:02.286Z,5.20
2023-04-23T01:10:32.755Z,4.50
2023-04-23T01:13:00.981Z,5.50
2023-04-23T01:15:30.910Z,5.20
2023-04-23T01:17:59.678Z,5.40
2023-04-23T01:20:27.830Z,5.50
2023-04-23T01:22:56.364Z,5.30
2023-04-23T01:25:24.287Z,6.00
2023-04-23T01:27:52.424Z,5.30
2023-04-23T01:30:20.683Z,4.90
2023-04-23T01:32:48.714Z,5.60
2023-04-23T01:35:16.771Z,5.10
2023-04-23T01:37:44.772Z,4.80
2023-04-23T01:40:12.837Z,5.30
2023-04-23T01:42:41.517Z,4.80
2023-04-23T01:45:10.316Z,4.80
2023-04-23T01:47:38.671Z,5.20
2023-04-23T01:50:07.269Z,4.10
2023-04-23T01:52:35.179Z,4.10
2023-04-23T01:55:04.364Z,4.10
2023-04-23T01:57:33.594Z,4.30
2023-04-23T02:00:08.785Z,4.90
2023-04-23T02:02:44.237Z,4.70
2023-04-23T02:05:14.578Z,4.90
2023-04-23T02:07:44.006Z,4.90
2023-04-23T02:10:13.013Z,4.90
2023-04-23T02:12:41.809Z,4.70
2023-04-23T02:15:10.878Z,4.30
2023-04-23T02:17:42.241Z,5.90
2023-04-23T02:20:10.729Z,5.90
2023-04-23T02:22:39.699Z,6.40
2023-04-23T02:25:08.422Z,5.30
2023-04-23T02:27:36.696Z,6.00
2023-04-23T02:30:06.416Z,5.40
2023-04-23T02:32:34.791Z,6.20
2023-04-23T02:35:03.573Z,6.20
2023-04-23T02:37:33.204Z,6.60
2023-04-23T02:40:01.566Z,6.70
2023-04-23T02:42:30.093Z,6.90
2023-04-23T02:44:58.011Z,10.40
2023-04-23T02:47:25.968Z,8.20
2023-04-23T02:49:53.968Z,6.70
2023-04-23T02:52:21.921Z,6.90
2023-04-23T02:54:49.826Z,5.70
2023-04-23T02:57:17.829Z,6.00
2023-04-23T02:59:46.479Z,6.40
2023-04-23T03:02:15.584Z,6.60
2023-04-23T03:04:43.701Z,6.10
2023-04-23T03:07:13.485Z,6.10
2023-04-23T03:09:42.434Z,6.40
2023-04-23T03:12:10.665Z,5.80
2023-04-23T03:14:40.498Z,6.40
2023-04-23T03:17:08.724Z,6.00
2023-04-23T03:19:36.696Z,5.50
2023-04-23T03:22:05.936Z,5.70
2023-04-23T03:24:34.740Z,5.70
2023-04-23T03:27:03.197Z,5.80
2023-04-23T03:29:31.519Z,5.40
2023-04-23T03:31:59.466Z,5.40
2023-04-23T03:34:27.352Z,6.20
2023-04-23T03:36:55.326Z,5.40
2023-04-23T03:39:23.239Z,5.20
2023-04-23T03:41:53.680Z,5.20
2023-04-23T03:44:24.908Z,5.00
2023-04-23T03:46:52.887Z,4.80
2023-04-23T03:49:21.425Z,4.70
2023-04-23T03:51:49.394Z,4.40
2023-04-23T03:54:19.830Z,4.60
2023-04-23T03:57:06.701Z,4.90
2023-04-23T03:59:39.216Z,4.60
2023-04-23T04:02:07.294Z,4.30
2023-04-23T04:04:36.860Z,4.80
2023-04-23T04:07:06.234Z,4.60
2023-04-23T04:09:34.333Z,4.70
2023-04-23T04:12:04.250Z,4.50
2023-04-23T04:14:32.800Z,4.60
2023-04-23T04:17:00.822Z,4.70
2023-04-23T04:19:28.979Z,4.50
2023-04-23T04:21:56.923Z,4.60
2023-04-23T04:24:26.333Z,4.50
2023-04-23T04:26:54.634Z,4.00
2023-04-23T04:29:23.897Z,4.20
2023-04-23T04:31:52.091Z,4.00
2023-04-23T04:34:20.372Z,4.40
2023-04-23T04:36:48.362Z,4.50
2023-04-23T04:39:16.314Z,4.50
2023-04-23T04:41:44.608Z,4.40
2023-04-23T04:44:14.430Z,5.20
2023-04-23T04:46:43.029Z,5.50
2023-04-23T04:49:12.198Z,4.90
2023-04-23T04:51:40.609Z,4.30
2023-04-23T04:54:08.759Z,5.10
2023-04-23T04:56:36.897Z,4.70
2023-04-23T04:59:05.186Z,4.60
2023-04-23T05:01:33.472Z,5.30
2023-04-23T05:04:01.846Z,5.80
2023-04-23T05:06:31.381Z,5.70
2023-04-23T05:08:59.574Z,5.90
2023-04-23T05:11:27.568Z,6.60
2023-04-23T05:13:56.772Z,5.60
2023-04-23T05:16:24.740Z,5.30
2023-04-23T05:18:52.652Z,4.70
2023-04-23T05:21:20.868Z,5.40
2023-04-23T05:23:49.901Z,5.20
2023-04-23T05:26:18.361Z,4.80
2023-04-23T05:28:46.403Z,5.20
2023-04-23T05:31:14.354Z,5.40
2023-04-23T05:33:49.966Z,5.90
2023-04-23T05:36:19.138Z,5.70
2023-04-23T05:38:47.374Z,6.20
2023-04-23T05:41:15.738Z,6.40
2023-04-23T05:43:44.151Z,6.60
2023-04-23T05:46:12.102Z,6.70
2023-04-23T05:48:41.027Z,6.60
2023-04-23T05:51:09.200Z,7.20
2023-04-23T05:53:37.826Z,7.30
2023-04-23T05:56:05.888Z,7.10
2023-04-23T05:58:34.443Z,7.60
2023-04-23T06:01:03.194Z,7.20
2023-04-23T06:04:53.431Z,7.10
2023-04-23T06:07:21.744Z,7.10
2023-04-23T06:09:50.755Z,6.20
2023-04-23T06:12:18.712Z,7.00
2023-04-23T06:14:46.631Z,7.80
2023-04-23T06:17:14.632Z,8.40
2023-04-23T06:19:42.826Z,9.10
2023-04-23T06:22:10.716Z,8.50
2023-04-23T06:24:39.119Z,8.90
2023-04-23T06:27:07.877Z,8.50
2023-04-23T06:29:38.058Z,7.60
2023-04-23T06:32:07.471Z,7.50
2023-04-23T06:34:36.106Z,6.80
2023-04-23T06:37:05.334Z,6.80
2023-04-23T06:39:33.304Z,6.00
2023-04-23T06:42:01.807Z,6.30
2023-04-23T06:44:47.102Z,5.60
2023-04-23T06:47:15.022Z,5.70
2023-04-23T06:49:44.391Z,5.50
2023-04-23T06:52:12.252Z,5.30
2023-04-23T06:54:40.972Z,5.10
2023-04-23T06:57:09.552Z,4.10
2023-04-23T06:59:37.489Z,4.00
2023-04-23T07:02:05.379Z,4.90
2023-04-23T07:04:34.076Z,5.20
2023-04-23T07:07:02.179Z,5.10
2023-04-23T07:09:30.933Z,4.60
2023-04-23T07:12:00.294Z,11.80
2023-04-23T07:14:28.575Z,15.80
2023-04-23T07:16:56.494Z,6.80
2023-04-23T07:19:25.024Z,5.10
2023-04-23T07:21:53.770Z,4.70
2023-04-23T07:24:21.803Z,4.30
2023-04-23T07:26:49.756Z,4.50
2023-04-23T07:29:17.913Z,4.40
2023-04-23T07:31:46.510Z,5.30
2023-04-23T07:34:14.482Z,5.00
2023-04-23T07:36:42.371Z,4.50
2023-04-23T07:39:10.369Z,4.40
2023-04-23T07:41:38.573Z,4.20
2023-04-23T07:44:06.706Z,4.10
2023-04-23T07:46:34.722Z,4.50
2023-04-23T07:49:02.819Z,3.90
2023-04-23T07:51:31.956Z,4.70
2023-04-23T07:54:00.126Z,5.50
2023-04-23T07:56:28.203Z,6.00
2023-04-23T07:58:58.279Z,5.10
2023-04-23T08:01:27.651Z,4.80
2023-04-23T08:04:00.914Z,4.80
2023-04-23T08:06:31.417Z,4.60
2023-04-23T08:09:00.398Z,4.70
2023-04-23T08:11:29.743Z,5.50
2023-04-23T08:13:57.650Z,4.60
2023-04-23T08:16:26.187Z,5.30
2023-04-23T08:19:04.664Z,5.10
2023-04-23T08:21:34.045Z,5.60
2023-04-23T08:24:03.289Z,5.50
2023-04-23T08:26:31.668Z,5.70
2023-04-23T08:29:00.859Z,5.50
2023-04-23T08:31:29.129Z,5.50
2023-04-23T08:33:57.046Z,5.20
2023-04-23T08:36:26.992Z,4.50
2023-04-23T08:38:54.886Z,5.00
2023-04-23T08:41:23.588Z,4.90
2023-04-23T08:44:12.848Z,4.40
2023-04-23T08:46:43.157Z,4.30
2023-04-23T08:49:16.001Z,4.90
2023-04-23T08:51:50.889Z,3.30
2023-04-23T08:54:27.133Z,2.60
2023-04-23T08:56:57.506Z,3.10
2023-04-23T08:59:30.488Z,2.90
2023-04-23T09:01:59.919Z,3.00
2023-04-23T09:04:28.584Z,3.10
2023-04-23T09:06:56.971Z,3.40
2023-04-23T09:09:24.978Z,3.50
2023-04-23T09:11:54.898Z,3.40
2023-04-23T09:14:25.610Z,4.40
2023-04-23T09:16:53.926Z,3.40
2023-04-23T09:19:22.246Z,3.30
2023-04-23T09:21:50.142Z,3.30
2023-04-23T09:24:18.184Z,3.40
2023-04-23T09:26:47.262Z,3.30
2023-04-23T09:29:23.559Z,3.60
2023-04-23T09:31:53.713Z,3.50
2023-04-23T09:34:23.390Z,3.50
2023-04-23T09:36:52.186Z,3.40
2023-04-23T09:39:22.769Z,3.30
2023-04-23T09:41:54.202Z,3.30
2023-04-23T09:44:26.602Z,3.40
2023-04-23T09:46:54.538Z,3.40
2023-04-23T09:49:22.652Z,3.80
2023-04-23T09:51:51.393Z,3.30
2023-04-23T09:54:23.722Z,3.20
2023-04-23T09:56:53.981Z,3.40
2023-04-23T09:59:46.835Z,4.20
2023-04-23T10:02:14.732Z,3.90
2023-04-23T10:04:43.031Z,3.60
2023-04-23T10:07:19.627Z,3.20
2023-04-23T10:09:48.666Z,3.30
2023-04-23T10:12:36.581Z,3.20
2023-04-23T10:15:05.812Z,3.60
2023-04-23T10:17:36.372Z,3.50
2023-04-23T10:20:07.176Z,3.40
2023-04-23T10:22:36.259Z,3.60
2023-04-23T10:25:08.749Z,2.90
2023-04-23T10:27:52.157Z,3.20
2023-04-23T10:30:22.227Z,2.90
2023-04-23T10:32:50.634Z,3.40
2023-04-23T10:35:19.042Z,3.30
2023-04-23T10:37:48.307Z,3.20
2023-04-23T10:40:22.044Z,3.50
2023-04-23T10:42:50.121Z,3.30
2023-04-23T10:45:24.876Z,3.20
2023-04-23T10:47:55.415Z,3.40
2023-04-23T10:50:30.840Z,3.40
2023-04-23T10:52:59.332Z,3.40
2023-04-23T10:55:28.818Z,3.40
2023-04-23T10:58:07.610Z,3.20
2023-04-23T11:00:41.489Z,3.30
2023-04-23T11:03:29.216Z,3.00
2023-04-23T11:06:01.126Z,3.60
2023-04-23T11:08:33.376Z,4.50
2023-04-23T11:11:02.976Z,4.70
2023-04-23T11:13:31.055Z,3.90
2023-04-23T11:16:18.759Z,3.30
2023-04-23T11:19:11.435Z,2.70
2023-04-23T11:21:54.791Z,3.30
2023-04-23T11:24:23.989Z,2.60
2023-04-23T11:26:53.304Z,3.10
2023-04-23T11:29:24.972Z,3.40
2023-04-23T11:32:02.251Z,3.20
2023-04-23T11:34:33.127Z,3.20
2023-04-23T11:37:02.373Z,3.30
2023-04-23T11:39:30.762Z,3.20
2023-04-23T11:42:03.460Z,2.60
2023-04-23T11:44:32.038Z,3.50
2023-04-23T11:47:02.124Z,3.00
2023-04-23T11:49:30.352Z,3.30
2023-04-23T11:52:00.736Z,3.20
2023-04-23T11:54:29.696Z,3.40
2023-04-23T11:57:01.507Z,3.30
2023-04-23T11:59:29.632Z,3.00
2023-04-23T12:01:58.885Z,3.20
2023-04-23T12:51:50.123Z,2.90
2023-04-23T12:54:18.152Z,2.70
2023-04-23T12:56:46.048Z,3.10
2023-04-23T12:59:13.909Z,2.90
2023-04-23T13:01:41.889Z,3.10
2023-04-23T13:04:09.976Z,3.90
2023-04-23T13:06:38.224Z,3.20
2023-04-23T13:09:06.182Z,2.80
2023-04-23T13:11:34.500Z,2.60
2023-04-23T13:14:02.482Z,2.80
2023-04-23T13:16:30.511Z,3.40
2023-04-23T13:18:59.497Z,3.00
2023-04-23T13:21:27.558Z,2.80
2023-04-23T13:32:36.731Z,3.50
2023-04-23T13:35:05.226Z,3.20
2023-04-23T13:37:35.610Z,3.60
2023-04-23T13:40:03.754Z,3.60
2023-04-23T13:42:34.405Z,3.70
2023-04-23T13:45:05.153Z,3.00
2023-04-23T13:47:35.072Z,3.20
2023-04-23T13:50:05.579Z,3.80
2023-04-23T13:52:33.958Z,3.40
2023-04-23T13:55:04.226Z,3.30
2023-04-23T13:57:32.576Z,3.10
2023-04-23T14:00:00.820Z,2.90
2023-04-23T14:02:28.862Z,3.30
2023-04-23T14:04:58.484Z,2.90
2023-04-23T14:07:26.615Z,4.00
2023-04-23T14:09:54.619Z,3.50
2023-04-23T14:12:24.111Z,3.40
2023-04-23T14:14:52.062Z,3.40
2023-04-23T14:17:20.059Z,3.20
2023-04-23T14:19:48.219Z,2.90
2023-04-23T14:22:16.443Z,2.80
2023-04-23T14:24:45.921Z,3.20
2023-04-23T14:27:13.901Z,3.20
2023-04-23T14:29:52.495Z,3.40
2023-04-23T14:32:20.894Z,3.40
2023-04-23T14:34:48.939Z,3.50
2023-04-23T14:37:17.628Z,3.40
2023-04-23T14:39:44.592Z,3.50
2023-04-23T14:42:11.688Z,3.40
2023-04-23T14:44:38.461Z,3.50
2023-04-23T14:47:08.302Z,3.30
2023-04-23T14:49:35.086Z,3.80
2023-04-23T14:52:02.123Z,3.80
2023-04-23T14:54:28.912Z,3.70
2023-04-23T14:56:56.591Z,3.30
2023-04-23T14:59:23.546Z,4.50
2023-04-23T15:01:50.459Z,4.10
2023-04-23T15:04:17.620Z,3.50
2023-04-23T15:06:44.541Z,3.40
2023-04-23T15:09:11.274Z,3.70
2023-04-23T15:11:41.794Z,3.20
2023-04-23T15:14:12.154Z,3.10
2023-04-23T15:19:11.970Z,3.40
2023-04-23T15:21:41.926Z,3.10
2023-04-23T15:24:08.981Z,2.80
2023-04-23T15:26:36.521Z,3.30
2023-04-23T15:29:04.061Z,2.90
2023-04-23T15:31:30.999Z,2.80
2023-04-23T15:33:57.839Z,3.30
2023-04-23T15:36:25.255Z,3.20
2023-04-23T15:38:52.083Z,3.10
2023-04-23T15:41:18.903Z,2.70
2023-04-23T15:43:46.549Z,2.90
2023-04-23T15:46:13.444Z,2.90
2023-04-23T15:48:40.316Z,3.30
2023-04-23T15:51:07.466Z,3.00
2023-04-23T15:53:34.253Z,3.00
2023-04-23T15:56:01.104Z,2.90
2023-04-23T15:58:27.955Z,2.90
2023-04-23T16:00:54.997Z,3.30
2023-04-23T16:03:21.942Z,3.20
2023-04-23T16:05:51.062Z,3.10
2023-04-23T16:08:17.929Z,3.00
2023-04-23T16:10:44.744Z,2.80
2023-04-23T16:13:11.520Z,3.40
2023-04-23T16:15:38.317Z,3.10
2023-04-23T16:18:06.351Z,3.20
2023-04-23T16:20:33.495Z,3.20
2023-04-23T16:23:00.367Z,4.50
2023-04-23T16:25:27.201Z,3.50
2023-04-23T16:27:54.081Z,3.20
2023-04-23T16:30:21.187Z,3.00
2023-04-23T16:32:48.134Z,2.90
2023-04-23T16:35:14.993Z,3.30
2023-04-23T16:37:41.805Z,3.00
2023-04-23T16:40:10.413Z,2.90
2023-04-23T16:42:37.353Z,3.10
2023-04-23T16:45:05.097Z,3.50
2023-04-23T16:47:32.030Z,3.10
2023-04-23T16:49:58.960Z,3.20
2023-04-23T16:52:25.790Z,3.10
2023-04-23T16:54:52.801Z,3.30
2023-04-23T16:57:19.690Z,3.10
2023-04-23T16:59:46.483Z,3.30
2023-04-23T17:02:13.328Z,5.30
2023-04-23T17:04:40.390Z,3.60
2023-04-23T17:07:07.615Z,3.60
2023-04-23T17:09:34.799Z,3.80
2023-04-23T17:12:02.532Z,4.30
2023-04-23T17:14:29.369Z,4.40
2023-04-23T17:16:56.397Z,4.50
2023-04-23T17:19:23.161Z,4.20
2023-04-23T17:21:49.938Z,4.50
2023-04-23T17:24:16.764Z,4.30
2023-04-23T17:26:43.778Z,4.90
2023-04-23T17:29:11.661Z,4.90
2023-04-23T17:31:38.762Z,4.70
2023-04-23T17:34:05.704Z,5.10
2023-04-23T17:36:33.108Z,4.70
2023-04-23T17:38:59.964Z,4.80
2023-04-23T17:41:26.795Z,5.70
2023-04-23T17:43:53.677Z,5.20
2023-04-23T17:46:20.920Z,6.10
2023-04-23T17:48:48.423Z,5.70
2023-04-23T17:51:15.255Z,5.20
2023-04-23T17:53:42.603Z,5.20
2023-04-23T17:56:10.244Z,4.90
2023-04-23T17:58:38.330Z,4.80
2023-04-23T18:01:10.189Z,6.40
2023-04-23T18:03:37.328Z,7.90
2023-04-23T18:06:04.784Z,7.90
2023-04-23T18:08:31.717Z,6.60
2023-04-23T18:10:58.736Z,6.00
2023-04-23T18:13:25.571Z,5.80
2023-04-23T18:15:52.639Z,5.80
2023-04-23T18:18:19.475Z,5.90
2023-04-23T18:22:37.792Z,6.20
2023-04-23T18:25:10.072Z,6.30
2023-04-23T18:27:37.038Z,5.90
2023-04-23T18:30:05.866Z,6.40
2023-04-23T18:32:40.946Z,6.10
2023-04-23T18:35:09.252Z,6.30
2023-04-23T18:37:48.640Z,6.10
2023-04-23T18:40:15.525Z,5.10
2023-04-23T18:42:42.304Z,5.80
2023-04-23T18:45:10.787Z,5.10
2023-04-23T18:47:46.521Z,5.50
2023-04-23T18:50:30.093Z,5.60
2023-04-23T18:52:56.883Z,5.70
2023-04-23T18:55:24.655Z,6.40
2023-04-23T18:57:51.530Z,6.10
2023-04-23T19:00:18.402Z,6.30
2023-04-23T19:02:45.287Z,6.70
2023-04-23T19:05:12.329Z,6.60
2023-04-23T19:07:41.386Z,6.70
2023-04-23T19:10:11.720Z,6.40
2023-04-23T19:12:38.499Z,6.50
2023-04-23T19:15:05.960Z,6.20
2023-04-23T19:17:33.100Z,7.90
2023-04-23T19:19:59.966Z,6.50
2023-04-23T19:22:27.258Z,6.20
2023-04-23T19:24:54.052Z,5.70
2023-04-23T19:27:21.573Z,5.80
2023-04-23T19:29:49.465Z,5.70
2023-04-23T19:32:16.321Z,6.40
2023-04-23T19:34:43.129Z,6.00
2023-04-23T19:37:09.935Z,6.40
2023-04-23T19:39:36.720Z,7.00
2023-04-23T19:42:04.577Z,6.40
2023-04-23T19:44:31.381Z,7.00
2023-04-23T19:46:58.196Z,6.70
2023-04-23T19:49:24.995Z,7.00
2023-04-23T19:51:53.246Z,7.30
2023-04-23T19:54:20.674Z,7.90
2023-04-23T19:56:48.238Z,7.30
2023-04-23T19:59:17.048Z,7.20
2023-04-23T20:01:43.805Z,7.00
2023-04-23T20:04:10.697Z,6.90
2023-04-23T20:06:37.778Z,7.20
2023-04-23T20:09:07.511Z,6.90
2023-04-23T20:11:35.418Z,6.90
2023-04-23T20:14:02.838Z,6.80
2023-04-23T20:16:29.718Z,6.10
2023-04-23T20:18:56.714Z,6.70
2023-04-23T20:21:23.991Z,6.30
2023-04-23T20:23:51.908Z,6.20
2023-04-23T20:26:19.687Z,6.00
2023-04-23T20:28:48.295Z,5.80
2023-04-23T20:31:15.205Z,6.10
2023-04-23T20:33:42.007Z,6.10
2023-04-23T20:36:10.960Z,6.60
2023-04-23T20:38:38.151Z,5.70
2023-04-23T20:41:05.938Z,5.90
2023-04-23T20:43:34.257Z,5.40
2023-04-23T20:46:01.636Z,5.40
2023-04-23T20:48:32.035Z,5.40
2023-04-23T20:50:59.616Z,4.80
2023-04-23T20:53:26.560Z,4.70
2023-04-23T20:55:53.325Z,5.70
2023-04-23T20:58:20.146Z,5.20
2023-04-23T21:00:47.991Z,5.30
2023-04-23T21:03:14.844Z,4.90
2023-04-23T21:05:44.675Z,5.30
2023-04-23T21:08:11.641Z,5.40
2023-04-23T21:10:39.041Z,5.20
2023-04-23T21:13:07.267Z,5.50
2023-04-23T21:15:35.646Z,5.60
2023-04-23T21:18:02.979Z,5.30
2023-04-23T21:20:30.079Z,5.10
2023-04-23T21:22:56.816Z,5.50
2023-04-23T21:25:23.586Z,5.20
2023-04-23T21:27:50.532Z,5.10
2023-04-23T21:30:38.556Z,5.40
2023-04-23T21:33:06.420Z,5.20
2023-04-23T21:35:33.234Z,4.70
2023-04-23T21:38:00.031Z,5.30
2023-04-23T21:40:26.858Z,4.90
2023-04-23T21:42:53.637Z,5.30
2023-04-23T21:45:20.587Z,4.70
2023-04-23T21:47:47.364Z,5.10
2023-04-23T21:50:14.223Z,4.70
2023-04-23T21:52:42.001Z,4.70
2023-04-23T21:55:11.466Z,4.90
2023-04-23T21:57:39.062Z,4.50
2023-04-23T22:00:11.210Z,4.90
2023-04-23T22:02:42.225Z,4.50
2023-04-23T22:05:09.774Z,4.30
2023-04-23T22:07:41.191Z,4.80
2023-04-23T22:10:11.650Z,4.40
2023-04-23T22:12:41.948Z,4.70
2023-04-23T22:15:13.875Z,5.00
2023-04-23T22:17:42.563Z,4.80
2023-04-23T22:20:12.022Z,5.10
2023-04-23T22:22:40.116Z,5.40
2023-04-23T22:25:08.057Z,4.80
2023-04-23T22:27:37.111Z,4.90
2023-04-23T22:30:06.732Z,5.10
2023-04-23T22:32:34.383Z,4.40
2023-04-23T22:35:01.288Z,4.00
2023-04-23T22:37:29.340Z,4.50
2023-04-23T22:39:56.178Z,4.60
2023-04-23T22:42:22.999Z,5.20
2023-04-23T22:44:49.797Z,4.30
2023-04-23T22:47:17.976Z,4.80
2023-04-23T22:49:44.992Z,4.30
2023-04-23T22:52:14.235Z,4.20
2023-04-23T22:54:41.777Z,4.80
2023-04-23T22:57:09.244Z,4.30
2023-04-23T22:59:36.209Z,4.40
2023-04-23T23:02:03.002Z,4.60
2023-04-23T23:04:29.900Z,4.90
2023-04-23T23:06:56.708Z,4.30
2023-04-23T23:09:24.571Z,4.80
2023-04-23T23:11:51.359Z,4.30
2023-04-23T23:14:18.428Z,4.60
2023-04-23T23:16:45.372Z,4.60
2023-04-23T23:19:12.714Z,4.30
2023-04-23T23:21:39.590Z,4.80
2023-04-23T23:24:06.394Z,5.10
2023-04-23T23:26:34.193Z,5.10
2023-04-23T23:29:02.037Z,5.50
2023-04-23T23:31:28.860Z,5.40
2023-04-23T23:33:55.756Z,5.70
2023-04-23T23:36:22.593Z,5.60
2023-04-23T23:38:51.037Z,5.60
2023-04-23T23:41:17.840Z,5.90
2023-04-23T23:43:44.628Z,5.70
2023-04-23T23:46:11.924Z,6.20
2023-04-23T23:48:38.794Z,7.00
2023-04-23T23:51:05.665Z,7.60
2023-04-23T23:53:32.433Z,10.10
2023-04-23T23:56:00.202Z,9.60
2023-04-23T23:58:29.406Z,10.30
